Fykan — LLDJ — position and weather

sailwx.info

Track history (hours):
 
Tides and Currents Weather Stations Pressure Air Temp Water Temp Dewpoint Dewpoint Depression Visibility Wind Speed Wind Dir Waves Ship Positions

Fykan

Last reported at 2015-May-29 05:16 UTC. Time now 2015-May-29 16:18 UTC.
Position N 66°36' E 012°59'.

Length 52 m; draft 3.3 m.

Type: Ship. MMSI: 259681000.

Date/timePositionNaut miles runAvg speedWind from/ knotsBaromVisibWave heightAir tempDewpointWater temp
2015-May-29 05:16N 66°36' E 012°59'4 5.5
2015-May-29 04:32N 66°34' E 012°50'1 0.1
2015-May-28 18:03N 66°34' E 012°47'5 1.4
2015-May-28 14:26N 66°36' E 012°59'5 5.9
2015-May-28 13:33N 66°34' E 012°47'3 0.9
2015-May-28 10:30N 66°34' E 012°54'3 0.7
2015-May-28 06:21N 66°36' E 012°59'4 5.3
2015-May-28 05:33N 66°34' E 012°50'0 0.0
2015-May-27 20:24N 66°34' E 012°50'4 0.7
2015-May-27 14:24N 66°36' E 012°59'5 6.0
2015-May-27 13:34N 66°34' E 012°47'1 0.2
2015-May-27 10:25N 66°34' E 012°49'5 1.1
2015-May-27 06:21N 66°36' E 012°59'4 5.1
2015-May-27 05:32N 66°34' E 012°50'1 0.1
2015-May-26 20:32N 66°34' E 012°51'3 1.0
2015-May-26 17:05N 66°36' E 012°59'3 5.6
2015-May-26 16:27N 66°34' E 012°52'1 0.1
2015-May-26 10:21N 66°34' E 012°54'7 1.7
2015-May-26 06:06N 66°38' E 013°08'4 5.2
2015-May-26 05:18N 66°36' E 012°59'4 5.6
2015-May-26 04:33N 66°34' E 012°50'1 0.1
2015-May-25 18:25N 66°34' E 012°47'7 5.4
2015-May-25 17:03N 66°39' E 013°01'3 1.2
2015-May-25 14:31N 66°36' E 012°59'5 5.3
2015-May-25 13:34N 66°34' E 012°47'5 1.4
2015-May-25 10:16N 66°34' E 012°59'3 3.2
2015-May-25 09:23N 66°37' E 012°59'1 0.3
2015-May-25 06:23N 66°36' E 012°59'4 5.0
2015-May-25 05:33N 66°34' E 012°50'5 0.5
2015-May-24 20:13N 66°37' E 012°59'1 0.2
2015-May-24 15:19N 66°36' E 012°59'4 5.5
2015-May-24 14:33N 66°34' E 012°50'1 0.1
2015-May-23 10:33N 66°34' E 012°47'5 5.2
2015-May-23 09:33N 66°36' E 012°59'0 0.0
2015-May-23 06:23N 66°36' E 012°59'4 5.1
2015-May-23 05:31N 66°34' E 012°50'4 0.4
2015-May-22 20:23N 66°34' E 012°59'6 4.9
2015-May-22 19:13N 66°38' E 013°08'8 2.8
2015-May-22 16:30N 66°34' E 012°53'0 0.0
2015-May-22 10:29N 66°34' E 012°53'3 0.6
2015-May-22 05:15N 66°36' E 012°59'5 6.1
2015-May-22 04:29N 66°34' E 012°49'0 0.0
2015-May-21 18:06N 66°34' E 012°49'5 1.3
2015-May-21 14:28N 66°36' E 012°59'5 5.5
2015-May-21 13:32N 66°34' E 012°47'3 0.9
2015-May-21 10:25N 66°34' E 012°54'3 0.7
2015-May-21 06:23N 66°36' E 012°59'4 5.1
2015-May-21 05:33N 66°34' E 012°50'1 0.1
2015-May-20 20:29N 66°34' E 012°49'5 0.8
2015-May-20 14:29N 66°36' E 012°59'5 5.6
2015-May-20 13:33N 66°34' E 012°47'2 0.9
2015-May-20 11:03N 66°35' E 012°42'7 1.4
2015-May-20 06:21N 66°36' E 012°59'5 5.5
2015-May-20 05:28N 66°34' E 012°48'3 0.3
2015-May-19 20:33N 66°36' E 012°51'3 0.9
2015-May-19 17:05N 66°36' E 012°59'3 5.7
2015-May-19 16:33N 66°34' E 012°54'1 0.2
2015-May-19 10:31N 66°34' E 012°50'4 0.8
2015-May-19 05:17N 66°36' E 012°59'  
Track history (hours):
 
Tides and Currents Weather Stations Pressure Air Temp Water Temp Dewpoint Dewpoint Depression Visibility Wind Speed Wind Dir Waves Ship Positions

Fykan

Last reported at 2015-May-29 05:16 UTC. Time now 2015-May-29 16:18 UTC.
Position N 66°36' E 012°59'.

Length 52 m; draft 3.3 m.

Type: Ship. MMSI: 259681000.

Date/timePositionNaut miles runAvg speedWind from/ knotsBaromVisibWave heightAir tempDewpointWater temp
2015-May-29 05:16N 66°36' E 012°59'4 5.5
2015-May-29 04:32N 66°34' E 012°50'1 0.1
2015-May-28 18:03N 66°34' E 012°47'5 1.4
2015-May-28 14:26N 66°36' E 012°59'5 5.9
2015-May-28 13:33N 66°34' E 012°47'3 0.9
2015-May-28 10:30N 66°34' E 012°54'3 0.7
2015-May-28 06:21N 66°36' E 012°59'4 5.3
2015-May-28 05:33N 66°34' E 012°50'0 0.0
2015-May-27 20:24N 66°34' E 012°50'4 0.7
2015-May-27 14:24N 66°36' E 012°59'5 6.0
2015-May-27 13:34N 66°34' E 012°47'1 0.2
2015-May-27 10:25N 66°34' E 012°49'5 1.1
2015-May-27 06:21N 66°36' E 012°59'4 5.1
2015-May-27 05:32N 66°34' E 012°50'1 0.1
2015-May-26 20:32N 66°34' E 012°51'3 1.0
2015-May-26 17:05N 66°36' E 012°59'3 5.6
2015-May-26 16:27N 66°34' E 012°52'1 0.1
2015-May-26 10:21N 66°34' E 012°54'7 1.7
2015-May-26 06:06N 66°38' E 013°08'4 5.2
2015-May-26 05:18N 66°36' E 012°59'4 5.6
2015-May-26 04:33N 66°34' E 012°50'1 0.1
2015-May-25 18:25N 66°34' E 012°47'7 5.4
2015-May-25 17:03N 66°39' E 013°01'3 1.2
2015-May-25 14:31N 66°36' E 012°59'5 5.3
2015-May-25 13:34N 66°34' E 012°47'5 1.4
2015-May-25 10:16N 66°34' E 012°59'3 3.2
2015-May-25 09:23N 66°37' E 012°59'1 0.3
2015-May-25 06:23N 66°36' E 012°59'4 5.0
2015-May-25 05:33N 66°34' E 012°50'5 0.5
2015-May-24 20:13N 66°37' E 012°59'1 0.2
2015-May-24 15:19N 66°36' E 012°59'4 5.5
2015-May-24 14:33N 66°34' E 012°50'1 0.1
2015-May-23 10:33N 66°34' E 012°47'5 5.2
2015-May-23 09:33N 66°36' E 012°59'0 0.0
2015-May-23 06:23N 66°36' E 012°59'4 5.1
2015-May-23 05:31N 66°34' E 012°50'4 0.4
2015-May-22 20:23N 66°34' E 012°59'6 4.9
2015-May-22 19:13N 66°38' E 013°08'8 2.8
2015-May-22 16:30N 66°34' E 012°53'0 0.0
2015-May-22 10:29N 66°34' E 012°53'3 0.6
2015-May-22 05:15N 66°36' E 012°59'5 6.1
2015-May-22 04:29N 66°34' E 012°49'0 0.0
2015-May-21 18:06N 66°34' E 012°49'5 1.3
2015-May-21 14:28N 66°36' E 012°59'5 5.5
2015-May-21 13:32N 66°34' E 012°47'3 0.9
2015-May-21 10:25N 66°34' E 012°54'3 0.7
2015-May-21 06:23N 66°36' E 012°59'4 5.1
2015-May-21 05:33N 66°34' E 012°50'1 0.1
2015-May-20 20:29N 66°34' E 012°49'5 0.8
2015-May-20 14:29N 66°36' E 012°59'5 5.6
2015-May-20 13:33N 66°34' E 012°47'2 0.9
2015-May-20 11:03N 66°35' E 012°42'7 1.4
2015-May-20 06:21N 66°36' E 012°59'5 5.5
2015-May-20 05:28N 66°34' E 012°48'3 0.3
2015-May-19 20:33N 66°36' E 012°51'3 0.9
2015-May-19 17:05N 66°36' E 012°59'3 5.7
2015-May-19 16:33N 66°34' E 012°54'1 0.2
2015-May-19 10:31N 66°34' E 012°50'4 0.8
2015-May-19 05:17N 66°36' E 012°59'  

Dump ship's entire track history